sensor_id;sensor_type;location;lat;lon;timestamp;pressure;altitude;pressure_sealevel;temperature;humidity
75317;BME280;63913;51.492;10.368;2023-04-25T00:00:31;97572.72;;;6.71;67.13
75317;BME280;63913;51.492;10.368;2023-04-25T00:02:56;97568.31;;;6.64;67.34
75317;BME280;63913;51.492;10.368;2023-04-25T00:05:23;97573.59;;;6.71;67.52
75317;BME280;63913;51.492;10.368;2023-04-25T00:07:49;97576.94;;;6.69;67.50
75317;BME280;63913;51.492;10.368;2023-04-25T00:10:15;97575.28;;;6.71;67.52
75317;BME280;63913;51.492;10.368;2023-04-25T00:12:41;97570.03;;;6.66;67.80
75317;BME280;63913;51.492;10.368;2023-04-25T00:15:07;97576.78;;;6.63;67.39
75317;BME280;63913;51.492;10.368;2023-04-25T00:17:32;97564.63;;;6.53;68.11
75317;BME280;63913;51.492;10.368;2023-04-25T00:19:58;97571.31;;;6.46;67.84
75317;BME280;63913;51.492;10.368;2023-04-25T00:22:23;97577.19;;;6.43;68.31
75317;BME280;63913;51.492;10.368;2023-04-25T00:24:49;97580.66;;;6.45;68.64
75317;BME280;63913;51.492;10.368;2023-04-25T00:27:15;97580.78;;;6.51;68.43
75317;BME280;63913;51.492;10.368;2023-04-25T00:29:40;97579.13;;;6.54;68.01
75317;BME280;63913;51.492;10.368;2023-04-25T00:32:05;97572.34;;;6.54;68.33
75317;BME280;63913;51.492;10.368;2023-04-25T00:34:31;97566.25;;;6.49;67.73
75317;BME280;63913;51.492;10.368;2023-04-25T00:36:56;97570.41;;;6.44;68.27
75317;BME280;63913;51.492;10.368;2023-04-25T00:39:22;97571.13;;;6.38;68.63
75317;BME280;63913;51.492;10.368;2023-04-25T00:41:47;97570.53;;;6.50;68.54
75317;BME280;63913;51.492;10.368;2023-04-25T00:44:15;97565.53;;;6.55;68.44
75317;BME280;63913;51.492;10.368;2023-04-25T00:46:42;97558.59;;;6.49;68.61
75317;BME280;63913;51.492;10.368;2023-04-25T00:49:07;97561.22;;;6.52;68.66
75317;BME280;63913;51.492;10.368;2023-04-25T00:51:33;97565.53;;;6.55;68.00
75317;BME280;63913;51.492;10.368;2023-04-25T00:53:59;97564.53;;;6.48;68.69
75317;BME280;63913;51.492;10.368;2023-04-25T00:56:24;97561.94;;;6.46;68.38
75317;BME280;63913;51.492;10.368;2023-04-25T00:58:53;97566.03;;;6.38;68.80
75317;BME280;63913;51.492;10.368;2023-04-25T01:01:20;97558.34;;;6.38;68.82
75317;BME280;63913;51.492;10.368;2023-04-25T01:03:46;97559.19;;;6.37;69.10
75317;BME280;63913;51.492;10.368;2023-04-25T01:06:11;97565.97;;;6.37;69.01
75317;BME280;63913;51.492;10.368;2023-04-25T01:08:38;97572.94;;;6.44;68.96
75317;BME280;63913;51.492;10.368;2023-04-25T01:11:04;97572.16;;;6.46;69.22
75317;BME280;63913;51.492;10.368;2023-04-25T01:13:30;97571.16;;;6.40;68.88
75317;BME280;63913;51.492;10.368;2023-04-25T01:15:57;97571.94;;;6.37;69.15
75317;BME280;63913;51.492;10.368;2023-04-25T01:18:23;97572.03;;;6.42;69.25
75317;BME280;63913;51.492;10.368;2023-04-25T01:20:51;97572.09;;;6.43;69.03
75317;BME280;63913;51.492;10.368;2023-04-25T01:23:18;97566.97;;;6.43;69.42
75317;BME280;63913;51.492;10.368;2023-04-25T01:25:45;97564.53;;;6.48;69.47
75317;BME280;63913;51.492;10.368;2023-04-25T01:28:11;97560.94;;;6.40;68.97
75317;BME280;63913;51.492;10.368;2023-04-25T01:30:37;97569.66;;;6.49;68.83
75317;BME280;63913;51.492;10.368;2023-04-25T01:33:04;97567.03;;;6.45;68.82
75317;BME280;63913;51.492;10.368;2023-04-25T01:35:31;97568.00;;;6.51;69.16
75317;BME280;63913;51.492;10.368;2023-04-25T01:37:57;97565.38;;;6.47;69.56
75317;BME280;63913;51.492;10.368;2023-04-25T01:40:24;97560.97;;;6.41;69.21
75317;BME280;63913;51.492;10.368;2023-04-25T01:42:50;97561.94;;;6.46;69.41
75317;BME280;63913;51.492;10.368;2023-04-25T01:45:17;97568.75;;;6.46;69.63
75317;BME280;63913;51.492;10.368;2023-04-25T01:47:43;97564.41;;;6.43;69.54
75317;BME280;63913;51.492;10.368;2023-04-25T01:50:12;97570.31;;;6.39;69.75
75317;BME280;63913;51.492;10.368;2023-04-25T01:52:38;97576.16;;;6.35;70.15
75317;BME280;63913;51.492;10.368;2023-04-25T01:55:04;97571.09;;;6.37;70.43
75317;BME280;63913;51.492;10.368;2023-04-25T01:57:32;97571.88;;;6.34;70.12
75317;BME280;63913;51.492;10.368;2023-04-25T01:59:59;97568.44;;;6.34;70.43
75317;BME280;63913;51.492;10.368;2023-04-25T02:02:38;97571.94;;;6.37;70.39
75317;BME280;63913;51.492;10.368;2023-04-25T02:05:06;97578.66;;;6.34;69.93
75317;BME280;63913;51.492;10.368;2023-04-25T02:07:34;97578.75;;;6.37;70.53
75317;BME280;63913;51.492;10.368;2023-04-25T02:10:00;97578.59;;;6.31;70.52
75317;BME280;63913;51.492;10.368;2023-04-25T02:12:28;97584.44;;;6.27;70.13
75317;BME280;63913;51.492;10.368;2023-04-25T02:15:05;97576.88;;;6.30;70.59
75317;BME280;63913;51.492;10.368;2023-04-25T02:17:51;97576.06;;;6.31;70.78
75317;BME280;63913;51.492;10.368;2023-04-25T02:20:24;97576.22;;;6.38;70.69
75317;BME280;63913;51.492;10.368;2023-04-25T02:22:50;97578.91;;;6.44;70.48
75317;BME280;63913;51.492;10.368;2023-04-25T02:25:16;97581.66;;;6.52;70.24
75317;BME280;63913;51.492;10.368;2023-04-25T02:27:42;97583.75;;;6.34;69.96
75317;BME280;63913;51.492;10.368;2023-04-25T02:30:08;97572.81;;;6.38;70.21
75317;BME280;63913;51.492;10.368;2023-04-25T02:32:34;97578.44;;;6.25;70.23
75317;BME280;63913;51.492;10.368;2023-04-25T02:35:00;97580.97;;;6.23;70.59
75317;BME280;63913;51.492;10.368;2023-04-25T02:37:30;97587.91;;;6.29;70.67
75317;BME280;63913;51.492;10.368;2023-04-25T02:39:55;97575.22;;;6.32;70.74
75317;BME280;63913;51.492;10.368;2023-04-25T02:42:21;97574.19;;;6.25;70.38
75317;BME280;63913;51.492;10.368;2023-04-25T02:44:46;97577.59;;;6.26;70.90
75317;BME280;63913;51.492;10.368;2023-04-25T02:47:11;97578.59;;;6.31;70.37
75317;BME280;63913;51.492;10.368;2023-04-25T02:49:37;97571.88;;;6.34;70.27
75317;BME280;63913;51.492;10.368;2023-04-25T02:52:02;97571.63;;;6.25;70.76
75317;BME280;63913;51.492;10.368;2023-04-25T02:54:27;97571.81;;;6.33;70.43
75317;BME280;63913;51.492;10.368;2023-04-25T02:56:54;97569.91;;;6.23;70.68
75317;BME280;63913;51.492;10.368;2023-04-25T02:59:24;97561.69;;;6.36;70.15
75317;BME280;63913;51.492;10.368;2023-04-25T03:01:50;97560.78;;;6.32;70.52
75317;BME280;63913;51.492;10.368;2023-04-25T03:04:15;97562.47;;;6.33;70.20
75317;BME280;63913;51.492;10.368;2023-04-25T03:06:40;97563.38;;;6.35;70.29
75317;BME280;63913;51.492;10.368;2023-04-25T03:09:06;97565.94;;;6.35;70.28
75317;BME280;63913;51.492;10.368;2023-04-25T03:11:31;97561.81;;;6.40;70.25
75317;BME280;63913;51.492;10.368;2023-04-25T03:13:57;97565.16;;;6.38;70.45
75317;BME280;63913;51.492;10.368;2023-04-25T03:16:23;97560.78;;;6.32;70.33
75317;BME280;63913;51.492;10.368;2023-04-25T03:18:48;97567.47;;;6.29;70.49
75317;BME280;63913;51.492;10.368;2023-04-25T03:21:15;97568.94;;;6.19;70.87
75317;BME280;63913;51.492;10.368;2023-04-25T03:23:41;97568.25;;;6.26;70.60
75317;BME280;63913;51.492;10.368;2023-04-25T03:26:06;97569.53;;;6.09;70.84
75317;BME280;63913;51.492;10.368;2023-04-25T03:28:32;97569.59;;;6.10;70.90
75317;BME280;63913;51.492;10.368;2023-04-25T03:30:57;97561.19;;;6.15;70.32
75317;BME280;63913;51.492;10.368;2023-04-25T03:33:23;97570.78;;;6.25;70.74
75317;BME280;63913;51.492;10.368;2023-04-25T03:35:48;97575.00;;;6.23;69.99
75317;BME280;63913;51.492;10.368;2023-04-25T03:38:15;97575.94;;;6.26;70.27
75317;BME280;63913;51.492;10.368;2023-04-25T03:40:41;97573.41;;;6.28;70.37
75317;BME280;63913;51.492;10.368;2023-04-25T03:43:19;97568.25;;;6.26;70.03
75317;BME280;63913;51.492;10.368;2023-04-25T03:45:51;97569.25;;;6.31;70.39
75317;BME280;63913;51.492;10.368;2023-04-25T03:48:19;97567.56;;;6.33;69.72
75317;BME280;63913;51.492;10.368;2023-04-25T03:50:47;97570.78;;;6.25;69.68
75317;BME280;63913;51.492;10.368;2023-04-25T03:53:12;97564.06;;;6.28;69.99
75317;BME280;63913;51.492;10.368;2023-04-25T03:56:06;97562.41;;;6.30;70.01
75317;BME280;63913;51.492;10.368;2023-04-25T03:58:34;97562.16;;;6.20;70.01
75317;BME280;63913;51.492;10.368;2023-04-25T04:01:00;97564.75;;;6.21;70.17
75317;BME280;63913;51.492;10.368;2023-04-25T04:03:27;97570.72;;;6.22;70.14
75317;BME280;63913;51.492;10.368;2023-04-25T04:05:53;97574.19;;;6.25;70.16
75317;BME280;63913;51.492;10.368;2023-04-25T04:08:18;97574.00;;;6.18;70.12
75317;BME280;63913;51.492;10.368;2023-04-25T04:10:44;97575.50;;;6.08;71.01
75317;BME280;63913;51.492;10.368;2023-04-25T04:13:09;97580.69;;;6.12;70.86
75317;BME280;63913;51.492;10.368;2023-04-25T04:15:35;97570.44;;;6.11;71.59
75317;BME280;63913;51.492;10.368;2023-04-25T04:18:00;97574.97;;;6.21;71.59
75317;BME280;63913;51.492;10.368;2023-04-25T04:20:29;97590.38;;;6.26;72.55
75317;BME280;63913;51.492;10.368;2023-04-25T04:22:55;97594.50;;;6.21;72.96
75317;BME280;63913;51.492;10.368;2023-04-25T04:25:21;97585.41;;;6.30;73.67
75317;BME280;63913;51.492;10.368;2023-04-25T04:28:03;97591.06;;;6.19;73.64
75317;BME280;63913;51.492;10.368;2023-04-25T04:30:40;97596.84;;;6.11;73.39
75317;BME280;63913;51.492;10.368;2023-04-25T04:33:07;97604.19;;;5.99;74.49
75317;BME280;63913;51.492;10.368;2023-04-25T04:35:33;97596.41;;;5.95;73.96
75317;BME280;63913;51.492;10.368;2023-04-25T04:37:59;97596.31;;;5.90;74.83
75317;BME280;63913;51.492;10.368;2023-04-25T04:40:28;97590.44;;;5.94;75.35
75317;BME280;63913;51.492;10.368;2023-04-25T04:43:16;97596.44;;;5.96;76.32
75317;BME280;63913;51.492;10.368;2023-04-25T04:45:54;97606.03;;;6.05;77.42
75317;BME280;63913;51.492;10.368;2023-04-25T04:48:32;97598.84;;;5.90;75.60
75317;BME280;63913;51.492;10.368;2023-04-25T04:51:17;97606.38;;;5.87;75.76
75317;BME280;63913;51.492;10.368;2023-04-25T04:54:02;97612.44;;;5.89;76.68
75317;BME280;63913;51.492;10.368;2023-04-25T04:56:39;97614.16;;;5.90;78.49
75317;BME280;63913;51.492;10.368;2023-04-25T04:59:15;97615.13;;;5.95;78.27
75317;BME280;63913;51.492;10.368;2023-04-25T05:02:16;97615.09;;;5.94;77.80
75317;BME280;63913;51.492;10.368;2023-04-25T05:05:05;97624.13;;;5.83;78.23
75317;BME280;63913;51.492;10.368;2023-04-25T05:07:49;97626.44;;;5.73;80.39
75317;BME280;63913;51.492;10.368;2023-04-25T05:10:38;97621.19;;;5.69;80.54
75317;BME280;63913;51.492;10.368;2023-04-25T05:13:21;97633.06;;;5.68;82.01
75317;BME280;63913;51.492;10.368;2023-04-25T05:16:12;97625.31;;;5.64;81.41
75317;BME280;63913;51.492;10.368;2023-04-25T05:18:55;97627.88;;;5.64;81.41
75317;BME280;63913;51.492;10.368;2023-04-25T05:21:41;97625.38;;;5.65;82.31
75317;BME280;63913;51.492;10.368;2023-04-25T05:24:34;97630.66;;;5.73;81.74
75317;BME280;63913;51.492;10.368;2023-04-25T05:27:16;97624.75;;;5.74;81.81
75317;BME280;63913;51.492;10.368;2023-04-25T05:29:59;97634.03;;;5.72;82.15
75317;BME280;63913;51.492;10.368;2023-04-25T05:32:45;97632.00;;;5.60;82.09
75317;BME280;63913;51.492;10.368;2023-04-25T05:35:12;97628.69;;;5.63;82.58
75317;BME280;63913;51.492;10.368;2023-04-25T05:37:43;97641.44;;;5.63;82.37
75317;BME280;63913;51.492;10.368;2023-04-25T05:40:11;97647.34;;;5.62;82.26
75317;BME280;63913;51.492;10.368;2023-04-25T05:42:42;97649.03;;;5.61;83.27
75317;BME280;63913;51.492;10.368;2023-04-25T05:45:37;97650.91;;;5.67;83.30
75317;BME280;63913;51.492;10.368;2023-04-25T05:48:03;97661.06;;;5.65;83.41
75317;BME280;63913;51.492;10.368;2023-04-25T05:50:51;97657.50;;;5.59;83.92
75317;BME280;63913;51.492;10.368;2023-04-25T05:53:36;97656.72;;;5.63;84.33
75317;BME280;63913;51.492;10.368;2023-04-25T05:56:01;97664.34;;;5.61;84.87
75317;BME280;63913;51.492;10.368;2023-04-25T05:58:28;97670.84;;;5.50;85.16
75317;BME280;63913;51.492;10.368;2023-04-25T06:00:56;97660.03;;;5.59;85.21
75317;BME280;63913;51.492;10.368;2023-04-25T06:03:22;97672.03;;;5.63;85.44
75317;BME280;63913;51.492;10.368;2023-04-25T06:05:49;97671.16;;;5.62;85.13
75317;BME280;63913;51.492;10.368;2023-04-25T06:08:15;97672.38;;;5.75;85.10
75317;BME280;63913;51.492;10.368;2023-04-25T06:10:40;97679.19;;;5.74;85.44
75317;BME280;63913;51.492;10.368;2023-04-25T06:13:06;97674.84;;;5.72;85.09
75317;BME280;63913;51.492;10.368;2023-04-25T06:15:33;97679.38;;;5.82;85.36
75317;BME280;63913;51.492;10.368;2023-04-25T06:17:59;97687.09;;;5.85;85.22
75317;BME280;63913;51.492;10.368;2023-04-25T06:20:28;97689.78;;;5.88;85.19
75317;BME280;63913;51.492;10.368;2023-04-25T06:22:56;97698.34;;;5.90;84.43
75317;BME280;63913;51.492;10.368;2023-04-25T06:25:35;97686.06;;;5.79;84.53
75317;BME280;63913;51.492;10.368;2023-04-25T06:28:01;97696.06;;;5.71;84.21
75317;BME280;63913;51.492;10.368;2023-04-25T06:30:26;97688.38;;;5.69;84.93
75317;BME280;63913;51.492;10.368;2023-04-25T06:32:57;97683.34;;;5.72;84.89
75317;BME280;63913;51.492;10.368;2023-04-25T06:35:22;97706.41;;;5.75;84.70
75317;BME280;63913;51.492;10.368;2023-04-25T06:37:48;97702.13;;;5.76;84.85
75317;BME280;63913;51.492;10.368;2023-04-25T06:40:13;97706.75;;;5.88;85.04
75317;BME280;63913;51.492;10.368;2023-04-25T06:42:40;97707.69;;;5.90;84.35
75317;BME280;63913;51.492;10.368;2023-04-25T06:45:34;97708.59;;;5.93;85.51
75317;BME280;63913;51.492;10.368;2023-04-25T06:48:00;97708.81;;;5.99;84.99
75317;BME280;63913;51.492;10.368;2023-04-25T06:50:25;97713.41;;;5.83;81.69
75317;BME280;63913;51.492;10.368;2023-04-25T06:52:50;97706.06;;;5.93;82.98
75317;BME280;63913;51.492;10.368;2023-04-25T06:55:17;97713.09;;;6.02;83.91
75317;BME280;63913;51.492;10.368;2023-04-25T06:58:01;97715.59;;;5.99;81.59
75317;BME280;63913;51.492;10.368;2023-04-25T07:00:47;97722.53;;;6.04;81.39
75317;BME280;63913;51.492;10.368;2023-04-25T07:03:12;97729.16;;;5.98;81.29
75317;BME280;63913;51.492;10.368;2023-04-25T07:05:38;97725.41;;;5.87;81.11
75317;BME280;63913;51.492;10.368;2023-04-25T07:08:03;97725.34;;;5.85;82.75
75317;BME280;63913;51.492;10.368;2023-04-25T07:10:29;97726.97;;;5.82;82.48
75317;BME280;63913;51.492;10.368;2023-04-25T07:12:54;97731.31;;;5.86;83.01
75317;BME280;63913;51.492;10.368;2023-04-25T07:15:19;97730.59;;;5.88;83.38
75317;BME280;63913;51.492;10.368;2023-04-25T07:17:47;97734.81;;;5.88;81.98
75317;BME280;63913;51.492;10.368;2023-04-25T07:20:12;97741.91;;;5.98;81.69
75317;BME280;63913;51.492;10.368;2023-04-25T07:22:38;97746.00;;;5.93;81.72
75317;BME280;63913;51.492;10.368;2023-04-25T07:25:04;97742.13;;;5.75;79.62
75317;BME280;63913;51.492;10.368;2023-04-25T07:27:30;97749.38;;;5.90;81.76
75317;BME280;63913;51.492;10.368;2023-04-25T07:30:09;97748.31;;;5.85;80.15
75317;BME280;63913;51.492;10.368;2023-04-25T07:32:38;97748.16;;;5.79;81.16
75317;BME280;63913;51.492;10.368;2023-04-25T07:35:04;97754.97;;;5.80;81.63
75317;BME280;63913;51.492;10.368;2023-04-25T07:37:29;97763.22;;;5.71;79.88
75317;BME280;63913;51.492;10.368;2023-04-25T07:40:07;97766.47;;;5.66;80.45
75317;BME280;63913;51.492;10.368;2023-04-25T07:42:35;97762.50;;;5.75;79.94
75317;BME280;63913;51.492;10.368;2023-04-25T07:45:02;97774.94;;;5.65;79.33
75317;BME280;63913;51.492;10.368;2023-04-25T07:47:28;97780.09;;;5.66;78.78
75317;BME280;63913;51.492;10.368;2023-04-25T07:49:54;97777.28;;;5.57;77.78
75317;BME280;63913;51.492;10.368;2023-04-25T07:52:20;97778.03;;;5.55;78.73
75317;BME280;63913;51.492;10.368;2023-04-25T07:54:51;97776.47;;;5.60;79.58
75317;BME280;63913;51.492;10.368;2023-04-25T07:57:23;97776.69;;;5.66;78.66
75317;BME280;63913;51.492;10.368;2023-04-25T07:59:50;97781.69;;;5.63;77.87
75317;BME280;63913;51.492;10.368;2023-04-25T08:02:15;97781.03;;;5.70;78.97
75317;BME280;63913;51.492;10.368;2023-04-25T08:04:41;97788.63;;;5.67;78.18
75317;BME280;63913;51.492;10.368;2023-04-25T08:07:08;97794.31;;;5.60;77.14
75317;BME280;63913;51.492;10.368;2023-04-25T08:09:47;97791.66;;;5.55;77.61
75317;BME280;63913;51.492;10.368;2023-04-25T08:12:21;97801.94;;;5.58;76.45
75317;BME280;63913;51.492;10.368;2023-04-25T08:14:46;97795.16;;;5.59;76.65
75317;BME280;63913;51.492;10.368;2023-04-25T08:17:12;97813.78;;;5.56;76.89
75317;BME280;63913;51.492;10.368;2023-04-25T08:19:40;97806.41;;;5.65;76.78
75317;BME280;63913;51.492;10.368;2023-04-25T08:22:09;97801.38;;;5.68;75.90
75317;BME280;63913;51.492;10.368;2023-04-25T08:24:46;97810.81;;;5.71;75.49
75317;BME280;63913;51.492;10.368;2023-04-25T08:27:12;97806.59;;;5.71;75.54
75317;BME280;63913;51.492;10.368;2023-04-25T08:29:37;97807.97;;;5.89;76.52
75317;BME280;63913;51.492;10.368;2023-04-25T08:32:03;97808.97;;;5.94;75.07
75317;BME280;63913;51.492;10.368;2023-04-25T08:34:29;97811.72;;;6.00;76.36
75317;BME280;63913;51.492;10.368;2023-04-25T08:36:56;97818.56;;;6.02;77.11
75317;BME280;63913;51.492;10.368;2023-04-25T08:39:28;97816.56;;;5.92;75.52
75317;BME280;63913;51.492;10.368;2023-04-25T08:42:12;97828.56;;;5.95;75.81
75317;BME280;63913;51.492;10.368;2023-04-25T08:44:39;97829.69;;;6.04;74.99
75317;BME280;63913;51.492;10.368;2023-04-25T08:47:06;97835.78;;;6.08;75.20
75317;BME280;63913;51.492;10.368;2023-04-25T08:49:37;97835.50;;;6.29;75.69
75317;BME280;63913;51.492;10.368;2023-04-25T08:52:04;97829.78;;;6.37;74.72
75317;BME280;63913;51.492;10.368;2023-04-25T08:54:32;97839.66;;;6.55;74.35
75317;BME280;63913;51.492;10.368;2023-04-25T08:57:02;97819.00;;;6.79;73.00
75317;BME280;63913;51.492;10.368;2023-04-25T08:59:30;97835.09;;;6.76;71.07
75317;BME280;63913;51.492;10.368;2023-04-25T09:01:56;97832.44;;;6.73;69.85
75317;BME280;63913;51.492;10.368;2023-04-25T09:04:23;97842.00;;;6.79;70.23
75317;BME280;63913;51.492;10.368;2023-04-25T09:06:48;97843.16;;;6.92;68.63
75317;BME280;63913;51.492;10.368;2023-04-25T09:09:14;97840.56;;;6.90;70.08
75317;BME280;63913;51.492;10.368;2023-04-25T09:11:40;97850.09;;;6.96;69.96
75317;BME280;63913;51.492;10.368;2023-04-25T09:14:22;97854.44;;;7.00;68.57
75317;BME280;63913;51.492;10.368;2023-04-25T09:17:04;97856.47;;;7.11;68.99
75317;BME280;63913;51.492;10.368;2023-04-25T09:19:39;97854.81;;;7.15;68.81
75317;BME280;63913;51.492;10.368;2023-04-25T09:22:14;97855.75;;;7.17;68.10
75317;BME280;63913;51.492;10.368;2023-04-25T09:24:44;97857.38;;;7.49;65.27
75317;BME280;63913;51.492;10.368;2023-04-25T09:27:13;97858.44;;;7.57;65.40
75317;BME280;63913;51.492;10.368;2023-04-25T09:29:43;97856.59;;;7.52;63.90
75317;BME280;63913;51.492;10.368;2023-04-25T09:32:18;97861.81;;;7.56;63.03
75317;BME280;63913;51.492;10.368;2023-04-25T09:34:47;97868.00;;;7.66;60.80
75317;BME280;63913;51.492;10.368;2023-04-25T09:37:22;97871.47;;;7.68;58.85
75317;BME280;63913;51.492;10.368;2023-04-25T09:40:08;97862.72;;;7.58;58.49
75317;BME280;63913;51.492;10.368;2023-04-25T09:42:48;97865.94;;;7.50;58.26
75317;BME280;63913;51.492;10.368;2023-04-25T09:45:14;97865.84;;;7.45;60.76
75317;BME280;63913;51.492;10.368;2023-04-25T09:47:41;97880.03;;;7.34;60.79
75317;BME280;63913;51.492;10.368;2023-04-25T09:50:14;97878.00;;;7.21;62.09
75317;BME280;63913;51.492;10.368;2023-04-25T09:52:42;97876.75;;;7.05;62.93
75317;BME280;63913;51.492;10.368;2023-04-25T09:55:18;97884.72;;;6.84;63.01
75317;BME280;63913;51.492;10.368;2023-04-25T09:57:47;97899.72;;;6.72;66.02
75317;BME280;63913;51.492;10.368;2023-04-25T10:00:16;97909.78;;;6.68;65.91
75317;BME280;63913;51.492;10.368;2023-04-25T10:02:42;97899.63;;;6.69;67.09
75317;BME280;63913;51.492;10.368;2023-04-25T10:05:16;97904.63;;;6.66;67.63
75317;BME280;63913;51.492;10.368;2023-04-25T10:07:43;97909.19;;;6.76;68.94
75317;BME280;63913;51.492;10.368;2023-04-25T10:10:14;97910.88;;;6.76;64.83
75317;BME280;63913;51.492;10.368;2023-04-25T10:12:39;97918.59;;;6.77;64.63
75317;BME280;63913;51.492;10.368;2023-04-25T10:15:06;97915.22;;;6.78;57.57
75317;BME280;63913;51.492;10.368;2023-04-25T10:17:33;97915.13;;;6.75;57.68
75317;BME280;63913;51.492;10.368;2023-04-25T10:20:01;97915.06;;;6.72;57.83
75317;BME280;63913;51.492;10.368;2023-04-25T10:22:32;97919.50;;;6.79;58.13
75317;BME280;63913;51.492;10.368;2023-04-25T10:25:00;97911.19;;;6.86;56.09
75317;BME280;63913;51.492;10.368;2023-04-25T10:27:29;97912.56;;;7.07;57.36
75317;BME280;63913;51.492;10.368;2023-04-25T10:30:05;97916.75;;;7.03;56.16
75317;BME280;63913;51.492;10.368;2023-04-25T10:32:35;97916.66;;;7.00;57.07
75317;BME280;63913;51.492;10.368;2023-04-25T10:35:36;97916.78;;;7.05;57.39
75317;BME280;63913;51.492;10.368;2023-04-25T10:38:13;97913.38;;;7.06;57.26
75317;BME280;63913;51.492;10.368;2023-04-25T10:40:39;97920.22;;;7.05;56.64
75317;BME280;63913;51.492;10.368;2023-04-25T10:45:56;97922.97;;;7.14;56.81
75317;BME280;63913;51.492;10.368;2023-04-25T10:48:28;97922.97;;;7.13;57.55
75317;BME280;63913;51.492;10.368;2023-04-25T10:51:10;97926.41;;;7.15;57.91
75317;BME280;63913;51.492;10.368;2023-04-25T10:53:36;97928.09;;;7.14;56.51
75317;BME280;63913;51.492;10.368;2023-04-25T10:58:42;97930.34;;;7.35;55.69
75317;BME280;63913;51.492;10.368;2023-04-25T11:01:07;97930.59;;;7.44;54.32
75317;BME280;63913;51.492;10.368;2023-04-25T11:03:38;97929.78;;;7.45;54.99
75317;BME280;63913;51.492;10.368;2023-04-25T11:06:05;97930.63;;;7.46;54.21
75317;BME280;63913;51.492;10.368;2023-04-25T11:08:55;97930.88;;;7.56;55.87
75317;BME280;63913;51.492;10.368;2023-04-25T11:11:20;97928.50;;;7.64;54.77
75317;BME280;63913;51.492;10.368;2023-04-25T11:13:49;97935.84;;;7.85;55.14
75317;BME280;63913;51.492;10.368;2023-04-25T11:16:16;97923.31;;;8.33;55.30
75317;BME280;63913;51.492;10.368;2023-04-25T11:18:42;97923.56;;;8.45;53.24
75317;BME280;63913;51.492;10.368;2023-04-25T11:21:08;97927.44;;;8.28;52.47
75317;BME280;63913;51.492;10.368;2023-04-25T11:23:34;97936.56;;;8.15;52.37
75317;BME280;63913;51.492;10.368;2023-04-25T11:25:59;97944.34;;;7.84;52.11
75317;BME280;63913;51.492;10.368;2023-04-25T11:28:26;97935.53;;;7.73;51.79
75317;BME280;63913;51.492;10.368;2023-04-25T11:30:52;97952.47;;;7.68;53.35
75317;BME280;63913;51.492;10.368;2023-04-25T11:33:23;97942.28;;;7.35;53.20
75317;BME280;63913;51.492;10.368;2023-04-25T11:35:49;97952.59;;;7.38;53.58
75317;BME280;63913;51.492;10.368;2023-04-25T11:38:14;97951.78;;;7.40;54.62
75317;BME280;63913;51.492;10.368;2023-04-25T11:40:40;97946.91;;;7.49;55.40
75317;BME280;63913;51.492;10.368;2023-04-25T11:43:06;97951.28;;;7.53;55.23
75317;BME280;63913;51.492;10.368;2023-04-25T11:45:32;97960.81;;;7.59;54.76
75317;BME280;63913;51.492;10.368;2023-04-25T11:47:58;97953.84;;;7.55;54.13
75317;BME280;63913;51.492;10.368;2023-04-25T11:50:23;97960.25;;;7.72;53.80
75317;BME280;63913;51.492;10.368;2023-04-25T11:52:48;97954.47;;;7.79;53.43
75317;BME280;63913;51.492;10.368;2023-04-25T11:55:17;97950.56;;;7.95;53.81
75317;BME280;63913;51.492;10.368;2023-04-25T11:57:44;97953.84;;;7.89;52.72
75317;BME280;63913;51.492;10.368;2023-04-25T12:00:15;97949.69;;;7.93;53.12
75317;BME280;63913;51.492;10.368;2023-04-25T12:02:44;97964.00;;;7.85;50.65
75317;BME280;63913;51.492;10.368;2023-04-25T12:05:11;97966.00;;;7.62;50.74
75317;BME280;63913;51.492;10.368;2023-04-25T12:07:37;97963.25;;;7.56;51.37
75317;BME280;63913;51.492;10.368;2023-04-25T12:10:10;97969.25;;;7.56;51.92
75317;BME280;63913;51.492;10.368;2023-04-25T12:12:36;97969.34;;;7.59;51.74
75317;BME280;63913;51.492;10.368;2023-04-25T12:17:42;97968.72;;;7.68;53.31
75317;BME280;63913;51.492;10.368;2023-04-25T12:20:12;97985.78;;;7.69;52.36
75317;BME280;63913;51.492;10.368;2023-04-25T12:22:41;97976.78;;;7.85;50.85
75317;BME280;63913;51.492;10.368;2023-04-25T12:25:10;97975.44;;;7.99;49.22
75317;BME280;63913;51.492;10.368;2023-04-25T12:27:35;97968.09;;;8.14;50.43
75317;BME280;63913;51.492;10.368;2023-04-25T12:30:02;97979.22;;;8.15;49.39
75317;BME280;63913;51.492;10.368;2023-04-25T12:32:28;97970.41;;;8.03;49.05
75317;BME280;63913;51.492;10.368;2023-04-25T12:34:54;97968.66;;;8.01;49.60
75317;BME280;63913;51.492;10.368;2023-04-25T12:37:20;97979.53;;;7.92;50.30
75317;BME280;63913;51.492;10.368;2023-04-25T12:39:46;97998.09;;;7.84;51.10
75317;BME280;63913;51.492;10.368;2023-04-25T12:42:11;97994.16;;;7.62;50.70
75317;BME280;63913;51.492;10.368;2023-04-25T12:44:37;97996.75;;;7.65;51.85
75317;BME280;63913;51.492;10.368;2023-04-25T12:47:03;97992.22;;;7.53;52.25
75317;BME280;63913;51.492;10.368;2023-04-25T12:49:29;97988.25;;;7.66;52.71
75317;BME280;63913;51.492;10.368;2023-04-25T12:51:54;98000.28;;;7.69;53.93
75317;BME280;63913;51.492;10.368;2023-04-25T12:54:19;98002.66;;;7.62;53.27
75317;BME280;63913;51.492;10.368;2023-04-25T12:56:45;98000.38;;;7.73;53.73
75317;BME280;63913;51.492;10.368;2023-04-25T12:59:11;98000.97;;;7.63;53.93
75317;BME280;63913;51.492;10.368;2023-04-25T13:01:36;98010.47;;;7.67;55.25
75317;BME280;63913;51.492;10.368;2023-04-25T13:04:02;98023.00;;;7.58;54.44
75317;BME280;63913;51.492;10.368;2023-04-25T13:06:28;98009.81;;;7.43;54.47
75317;BME280;63913;51.492;10.368;2023-04-25T13:08:55;97995.53;;;7.51;55.85
75317;BME280;63913;51.492;10.368;2023-04-25T13:11:20;98008.38;;;7.52;54.86
75317;BME280;63913;51.492;10.368;2023-04-25T13:13:46;98003.47;;;7.60;54.04
75317;BME280;63913;51.492;10.368;2023-04-25T13:16:11;98019.06;;;7.71;54.79
75317;BME280;63913;51.492;10.368;2023-04-25T13:18:39;98010.13;;;7.88;53.90